FDX1004 PHOG-PHNL
Flight info
| Callsign | FDX1004 |
|---|---|
| Flight time | 0h 20m |
| Altitude | 14000 |
| Route | MAUI5 OGG LNY JULLE5 |
| Aircraft | B752/M-SDE2E3FGHIJ3J4J7RWXY/LB1 |
Departure
| Time | 2026-04-22 22:03 |
|---|---|
| Airport | Kahului International Airport (PHOG) |
Arrival
| Time | 2026-04-22 22:23 |
|---|---|
| Airport | Daniel K. Inouye International Airport (PHNL) |
| Time | Latitude | Longitude | Altitude | Speed | Heading |
|---|---|---|---|---|---|
| 2026-04-22 21:41 | 20.89016 | -156.43886 | 66 ft | 0 kts | 305° |
| 2026-04-22 21:56 | 20.89014 | -156.43883 | 66 ft | 2 kts | 305° |
| 2026-04-22 21:56 | 20.89005 | -156.43869 | 66 ft | 2 kts | 304° |
| 2026-04-22 21:56 | 20.88997 | -156.43855 | 66 ft | 2 kts | 305° |
| 2026-04-22 21:57 | 20.88988 | -156.43843 | 66 ft | 2 kts | 305° |
| 2026-04-22 21:57 | 20.88979 | -156.43829 | 66 ft | 2 kts | 304° |
| 2026-04-22 21:57 | 20.88971 | -156.43816 | 66 ft | 2 kts | 305° |
| 2026-04-22 21:57 | 20.88962 | -156.43803 | 66 ft | 2 kts | 323° |
| 2026-04-22 21:58 | 20.88948 | -156.43797 | 66 ft | 2 kts | 348° |
| 2026-04-22 21:58 | 20.88933 | -156.43796 | 66 ft | 2 kts | 14° |
| 2026-04-22 21:58 | 20.88922 | -156.43800 | 66 ft | 0 kts | 33° |
| 2026-04-22 21:58 | 20.88917 | -156.43805 | 66 ft | 0 kts | 36° |
| 2026-04-22 22:01 | 20.88919 | -156.43803 | 66 ft | 2 kts | 36° |
| 2026-04-22 22:01 | 20.88945 | -156.43782 | 66 ft | 5 kts | 43° |
| 2026-04-22 22:01 | 20.88973 | -156.43749 | 65 ft | 6 kts | 62° |
| 2026-04-22 22:02 | 20.88973 | -156.43700 | 66 ft | 6 kts | 107° |
| 2026-04-22 22:02 | 20.88951 | -156.43652 | 66 ft | 7 kts | 114° |
| 2026-04-22 22:02 | 20.88964 | -156.43600 | 66 ft | 12 kts | 40° |
| 2026-04-22 22:02 | 20.89184 | -156.43437 | 66 ft | 73 kts | 36° |
| 2026-04-22 22:03 | 20.89800 | -156.42976 | 66 ft | 143 kts | 35° |
| 2026-04-22 22:03 | 20.90748 | -156.42305 | 559 ft | 171 kts | 27° |
| 2026-04-22 22:03 | 20.91863 | -156.41968 | 1545 ft | 172 kts | 12° |
| 2026-04-22 22:03 | 20.93154 | -156.41707 | 1749 ft | 203 kts | 11° |
| 2026-04-22 22:04 | 20.94658 | -156.41440 | 1853 ft | 238 kts | 8° |
| 2026-04-22 22:04 | 20.96364 | -156.41565 | 2356 ft | 258 kts | 344° |
| 2026-04-22 22:04 | 20.97904 | -156.42523 | 3148 ft | 265 kts | 318° |
| 2026-04-22 22:04 | 20.99033 | -156.44208 | 3344 ft | 296 kts | 290° |
| 2026-04-22 22:05 | 20.99292 | -156.46269 | 4792 ft | 277 kts | 268° |
| 2026-04-22 22:05 | 20.98885 | -156.48247 | 5671 ft | 280 kts | 252° |
| 2026-04-22 22:05 | 20.98211 | -156.50195 | 6626 ft | 279 kts | 250° |
| 2026-04-22 22:05 | 20.97517 | -156.52119 | 7473 ft | 282 kts | 250° |
| 2026-04-22 22:06 | 20.96809 | -156.54088 | 8325 ft | 285 kts | 250° |
| 2026-04-22 22:06 | 20.96095 | -156.56067 | 9171 ft | 287 kts | 250° |
| 2026-04-22 22:06 | 20.95369 | -156.58078 | 9829 ft | 298 kts | 250° |
| 2026-04-22 22:06 | 20.94582 | -156.60259 | 10145 ft | 331 kts | 250° |
| 2026-04-22 22:07 | 20.93728 | -156.62624 | 10791 ft | 358 kts | 250° |
| 2026-04-22 22:07 | 20.92798 | -156.65195 | 11360 ft | 385 kts | 249° |
| 2026-04-22 22:07 | 20.91813 | -156.67914 | 12254 ft | 398 kts | 249° |
| 2026-04-22 22:07 | 20.90805 | -156.70682 | 13337 ft | 406 kts | 249° |
| 2026-04-22 22:08 | 20.89780 | -156.73468 | 14167 ft | 410 kts | 249° |
| 2026-04-22 22:08 | 20.88717 | -156.76335 | 14303 ft | 412 kts | 249° |
| 2026-04-22 22:08 | 20.87658 | -156.79189 | 14207 ft | 412 kts | 249° |
| 2026-04-22 22:08 | 20.86621 | -156.81984 | 14107 ft | 410 kts | 249° |
| 2026-04-22 22:09 | 20.85568 | -156.84822 | 14047 ft | 409 kts | 249° |
| 2026-04-22 22:09 | 20.84518 | -156.87650 | 14018 ft | 408 kts | 249° |
| 2026-04-22 22:09 | 20.83476 | -156.90459 | 14003 ft | 409 kts | 249° |
| 2026-04-22 22:09 | 20.82432 | -156.93282 | 14018 ft | 409 kts | 249° |
| 2026-04-22 22:10 | 20.81382 | -156.96124 | 14015 ft | 409 kts | 249° |
| 2026-04-22 22:10 | 20.80350 | -156.98940 | 14010 ft | 409 kts | 251° |
| 2026-04-22 22:10 | 20.79608 | -157.01891 | 14005 ft | 408 kts | 261° |
| 2026-04-22 22:10 | 20.79380 | -157.04894 | 14009 ft | 407 kts | 271° |
| 2026-04-22 22:11 | 20.79657 | -157.07901 | 14014 ft | 406 kts | 281° |
| 2026-04-22 22:11 | 20.80402 | -157.10797 | 14016 ft | 406 kts | 291° |
| 2026-04-22 22:11 | 20.82849 | -157.16878 | 14037 ft | 406 kts | 293° |
| 2026-04-22 22:11 | 20.85449 | -157.23856 | 14052 ft | 406 kts | 287° |
| 2026-04-22 22:12 | 20.86299 | -157.26704 | 14039 ft | 405 kts | 288° |
| 2026-04-22 22:12 | 20.87191 | -157.29584 | 14033 ft | 406 kts | 288° |
| 2026-04-22 22:12 | 20.88077 | -157.32428 | 14032 ft | 406 kts | 289° |
| 2026-04-22 22:12 | 20.88974 | -157.35271 | 14032 ft | 406 kts | 289° |
| 2026-04-22 22:13 | 20.89886 | -157.38139 | 14032 ft | 406 kts | 289° |
| 2026-04-22 22:13 | 20.90787 | -157.40968 | 14032 ft | 406 kts | 289° |
| 2026-04-22 22:13 | 20.91705 | -157.43840 | 14032 ft | 406 kts | 289° |
| 2026-04-22 22:13 | 20.92609 | -157.46668 | 14032 ft | 406 kts | 289° |
| 2026-04-22 22:14 | 20.93529 | -157.49545 | 13957 ft | 405 kts | 289° |
| 2026-04-22 22:14 | 20.94438 | -157.52388 | 13829 ft | 404 kts | 289° |
| 2026-04-22 22:14 | 20.95342 | -157.55215 | 13680 ft | 404 kts | 289° |
| 2026-04-22 22:14 | 20.96257 | -157.58078 | 13529 ft | 403 kts | 289° |
| 2026-04-22 22:15 | 20.97164 | -157.60918 | 13248 ft | 401 kts | 289° |
| 2026-04-22 22:15 | 20.98058 | -157.63721 | 12438 ft | 398 kts | 289° |
| 2026-04-22 22:15 | 20.98939 | -157.66484 | 11490 ft | 381 kts | 288° |
| 2026-04-22 22:15 | 20.99762 | -157.69064 | 8935 ft | 385 kts | 289° |
| 2026-04-22 22:16 | 21.00577 | -157.71625 | 7801 ft | 351 kts | 289° |
| 2026-04-22 22:16 | 21.01326 | -157.73981 | 7123 ft | 314 kts | 289° |
| 2026-04-22 22:16 | 21.01983 | -157.76045 | 6998 ft | 275 kts | 289° |
| 2026-04-22 22:16 | 21.02596 | -157.77972 | 6971 ft | 270 kts | 290° |
| 2026-04-22 22:17 | 21.03186 | -157.79825 | 6752 ft | 265 kts | 290° |
| 2026-04-22 22:17 | 21.03780 | -157.81692 | 6448 ft | 264 kts | 290° |
| 2026-04-22 22:17 | 21.04371 | -157.83551 | 6130 ft | 263 kts | 290° |
| 2026-04-22 22:17 | 21.04977 | -157.85393 | 5825 ft | 262 kts | 295° |
| 2026-04-22 22:18 | 21.06046 | -157.86937 | 5492 ft | 259 kts | 322° |
| 2026-04-22 22:18 | 21.07589 | -157.87903 | 5176 ft | 255 kts | 334° |
| 2026-04-22 22:18 | 21.09154 | -157.88782 | 4444 ft | 257 kts | 333° |
| 2026-04-22 22:18 | 21.10724 | -157.89685 | 3816 ft | 254 kts | 333° |
| 2026-04-22 22:19 | 21.12267 | -157.90576 | 3160 ft | 253 kts | 333° |
| 2026-04-22 22:19 | 21.13786 | -157.91457 | 2528 ft | 251 kts | 333° |
| 2026-04-22 22:19 | 21.15300 | -157.92334 | 2199 ft | 236 kts | 333° |
| 2026-04-22 22:19 | 21.16703 | -157.93149 | 1947 ft | 229 kts | 333° |
| 2026-04-22 22:20 | 21.18063 | -157.93938 | 1956 ft | 214 kts | 332° |
| 2026-04-22 22:20 | 21.19325 | -157.94673 | 1932 ft | 200 kts | 333° |
| 2026-04-22 22:20 | 21.20511 | -157.95363 | 1868 ft | 190 kts | 333° |
| 2026-04-22 22:20 | 21.21661 | -157.96030 | 1794 ft | 187 kts | 334° |
| 2026-04-22 22:21 | 21.22893 | -157.96381 | 1649 ft | 185 kts | 358° |
| 2026-04-22 22:21 | 21.24149 | -157.96417 | 1632 ft | 170 kts | 359° |
| 2026-04-22 22:21 | 21.25297 | -157.96448 | 1612 ft | 165 kts | 359° |
| 2026-04-22 22:21 | 21.26429 | -157.96480 | 1562 ft | 162 kts | 359° |
| 2026-04-22 22:22 | 21.27513 | -157.96510 | 1407 ft | 154 kts | 359° |
| 2026-04-22 22:22 | 21.28594 | -157.96489 | 1206 ft | 156 kts | 11° |
| 2026-04-22 22:22 | 21.29429 | -157.95795 | 930 ft | 159 kts | 57° |
| 2026-04-22 22:22 | 21.29978 | -157.94768 | 604 ft | 157 kts | 58° |
| 2026-04-22 22:23 | 21.30595 | -157.93849 | 337 ft | 151 kts | 53° |
| 2026-04-22 22:23 | 21.31223 | -157.92953 | 113 ft | 149 kts | 53° |
| 2026-04-22 22:23 | 21.31821 | -157.92107 | 26 ft | 121 kts | 53° |
| 2026-04-22 22:23 | 21.32115 | -157.91684 | 25 ft | 30 kts | 49° |
| 2026-04-22 22:24 | 21.32158 | -157.91628 | 25 ft | 5 kts | 51° |
| 2026-04-22 22:24 | 21.32189 | -157.91585 | 25 ft | 8 kts | 51° |
| 2026-04-22 22:24 | 21.32208 | -157.91534 | 25 ft | 7 kts | 97° |
| 2026-04-22 22:24 | 21.32182 | -157.91492 | 25 ft | 7 kts | 140° |
| 2026-04-22 22:25 | 21.32144 | -157.91463 | 25 ft | 5 kts | 161° |
| 2026-04-22 22:25 | 21.32112 | -157.91478 | 25 ft | 5 kts | 233° |
| 2026-04-22 22:25 | 21.32085 | -157.91516 | 25 ft | 6 kts | 233° |
| 2026-04-22 22:25 | 21.32053 | -157.91562 | 25 ft | 11 kts | 232° |
| 2026-04-22 22:26 | 21.31987 | -157.91635 | 25 ft | 9 kts | 216° |
| 2026-04-22 22:26 | 21.31947 | -157.91655 | 25 ft | 4 kts | 165° |
| 2026-04-22 22:26 | 21.31924 | -157.91634 | 25 ft | 3 kts | 136° |
| 2026-04-22 22:26 | 21.31894 | -157.91609 | 25 ft | 5 kts | 142° |
| 2026-04-22 22:27 | 21.31879 | -157.91597 | 25 ft | 1 kts | 142° |
| 2026-04-22 22:27 | 21.31866 | -157.91586 | 25 ft | 1 kts | 142° |
| 2026-04-22 22:27 | 21.31861 | -157.91582 | 25 ft | 0 kts | 143° |